This is the latest recevied weather packets stored in our database for station/object PA3EUZ. If no packets are shown the sender has not sent any weather packets the latest 10 day(s).
| Time | Temp. | Humidity | Pressure | Rain* | Wind** | Luminosity | Snow |
|---|---|---|---|---|---|---|---|
| 1777398318 | 18.89° C | 34% | 1020.5 hPa | 0 mm | - | 133 W/m² | - |
| 1777388438 | 20° C | 34% | 1020.3 hPa | 0 mm | - | 590 W/m² | - |
| 1777385718 | 20° C | 34% | 1020.4 hPa | 0 mm | - | 684 W/m² | - |
| 1777383918 | 20° C | 35% | 1020.6 hPa | 0 mm | - | 731 W/m² | - |
| 1777378518 | 19.44° C | 36% | 1021 hPa | 0 mm | - | 814 W/m² | - |
| 1777368618 | 15° C | 56% | 1022 hPa | 0 mm | - | 685 W/m² | - |
| 1777367718 | 14.44° C | 58% | 1022 hPa | 0 mm | - | 646 W/m² | - |
| 1777364118 | 12.78° C | 63% | 1021.8 hPa | 0 mm | - | 379 W/m² | - |
| 1777360518 | 11.11° C | 70% | 1021.8 hPa | 0 mm | - | 285 W/m² | - |
| 1777351517 | 8.33° C | 79% | 1021 hPa | 0 mm | - | 9 W/m² | - |
| 1777345237 | 9.44° C | 76% | 1021.3 hPa | 0 mm | - | 0 W/m² | - |
| 1777341617 | 10.56° C | 73% | 1021.7 hPa | 0 mm | - | 0 W/m² | - |
| 1777336217 | 11.67° C | 66% | 1021.3 hPa | 0 mm | - | 0 W/m² | - |
| 1777331717 | 11.67° C | 69% | 1021.6 hPa | 0 mm | - | 0 W/m² | - |
| 1777329017 | 11.67° C | 71% | 1021.3 hPa | 0 mm | - | 0 W/m² | - |
| 1777321818 | 12.78° C | 59% | 1021.4 hPa | 0 mm | - | 0 W/m² | - |
| 1777320018 | 13.33° C | 53% | 1021.4 hPa | 0 mm | - | 0 W/m² | - |
| 1777313718 | 15.56° C | 55% | 1020.9 hPa | 0 mm | - | 20 W/m² | - |
| 1777312818 | 16.11° C | 53% | 1020.9 hPa | 0 mm | - | 28 W/m² | - |
| 1777311918 | 16.11° C | 48% | 1020.9 hPa | 0 mm | - | 40 W/m² | - |
| 1777306518 | 18.89° C | 42% | 1021.2 hPa | 0 mm | - | 216 W/m² | - |
| 1777304718 | 20° C | 37% | 1021.4 hPa | 0 mm | - | 233 W/m² | - |
| 1777298418 | 20.56° C | 33% | 1022.2 hPa | 0 mm | - | 764 W/m² | - |
| 1777296618 | 20.56° C | 32% | 1022.6 hPa | 0 mm | - | 684 W/m² | - |
| 1777292118 | 19.44° C | 35% | 1023.1 hPa | 0 mm | - | 729 W/m² | - |
* Rain latest hour (hover to see other rain measurements)
** Current wind speed in m/s (hover to see current wind gust speed)